Time;durP1;ratioP1;P1;durP2;ratioP2;P2;SDS_P1;SDS_P2;PMS_P1;PMS_P2;Temp;Humidity;BMP_temperature;BMP_pressure;BME280_temperature;BME280_humidity;BME280_pressure;Samples;Min_cycle;Max_cycle;Signal;HPM_P1;HPM_P2
2022/11/20 00:01:21;;;;;;;15.52;7.75;;;6.00;99.90;;;;;;5079299;28;20028;-74
2022/11/20 00:03:47;;;;;;;5.88;5.22;;;6.00;99.90;;;;;;5071810;28;20032;-74
2022/11/20 00:06:15;;;;;;;7.68;5.25;;;6.00;99.90;;;;;;5072490;28;20021;-74
2022/11/20 00:08:42;;;;;;;6.70;5.15;;;6.00;99.90;;;;;;5070674;28;20033;-75
2022/11/20 00:11:11;;;;;;;7.63;4.90;;;6.10;99.90;;;;;;5080081;28;20024;-74
2022/11/20 00:13:38;;;;;;;6.00;5.40;;;6.10;99.90;;;;;;5075063;28;20032;-74
2022/11/20 00:16:06;;;;;;;5.68;5.00;;;6.10;99.90;;;;;;5068662;28;20025;-74
2022/11/20 00:18:33;;;;;;;9.73;4.68;;;6.10;99.90;;;;;;5065732;28;20112;-74
2022/11/20 00:21:07;;;;;;;6.35;5.38;;;6.00;99.90;;;;;;5071132;28;20028;-74
2022/11/20 00:23:34;;;;;;;6.05;4.85;;;6.10;99.90;;;;;;5063613;28;20029;-74
2022/11/20 00:26:08;;;;;;;4.97;4.57;;;6.00;99.90;;;;;;5079937;28;20035;-74
2022/11/20 00:28:34;;;;;;;5.07;4.07;;;6.10;99.90;;;;;;5068696;28;20108;-74
2022/11/20 00:31:14;;;;;;;8.38;4.85;;;6.10;99.90;;;;;;5065745;28;20173;-74
2022/11/20 00:33:41;;;;;;;5.80;5.18;;;6.10;99.90;;;;;;5067031;28;20036;-75
2022/11/20 00:36:16;;;;;;;6.93;4.65;;;6.10;99.90;;;;;;5073508;28;20393;-74
2022/11/20 00:38:42;;;;;;;8.23;6.25;;;6.20;99.90;;;;;;5071610;28;20078;-74
2022/11/20 00:41:11;;;;;;;6.38;4.28;;;6.20;99.90;;;;;;5079431;28;20547;-74
2022/11/20 00:43:37;;;;;;;10.13;4.75;;;6.30;99.90;;;;;;5070505;28;20043;-74
2022/11/20 00:46:06;;;;;;;29.17;15.98;;;6.40;99.90;;;;;;5060088;28;20025;-75
2022/11/20 00:48:32;;;;;;;7.40;4.68;;;6.40;99.90;;;;;;5070159;28;20401;-74
2022/11/20 00:50:59;;;;;;;5.28;4.68;;;6.50;99.90;;;;;;5060676;28;20076;-74
2022/11/20 00:53:25;;;;;;;7.70;4.47;;;6.50;99.90;;;;;;5069084;28;20027;-74
2022/11/20 00:55:55;;;;;;;8.35;4.97;;;6.50;99.90;;;;;;5085118;28;20021;-74
2022/11/20 00:58:22;;;;;;;6.03;4.60;;;6.50;99.90;;;;;;5070279;28;20133;-74
2022/11/20 01:00:49;;;;;;;6.90;5.63;;;6.50;99.90;;;;;;5072073;28;20052;-74
2022/11/20 01:03:16;;;;;;;8.55;6.72;;;6.50;99.90;;;;;;5069544;28;20058;-74
2022/11/20 01:05:42;;;;;;;5.85;4.63;;;6.50;99.90;;;;;;5060717;28;20028;-75
2022/11/20 01:08:08;;;;;;;7.85;4.88;;;6.50;99.90;;;;;;5067378;28;20488;-75
2022/11/20 01:10:34;;;;;;;29.42;14.27;;;6.50;99.90;;;;;;5076692;28;20027;-75
2022/11/20 01:15:44;;;;;;;6.93;5.15;;;6.40;99.90;;;;;;5061694;28;20095;-75
2022/11/20 01:18:09;;;;;;;5.30;4.60;;;6.40;99.90;;;;;;5065287;28;20032;-74
2022/11/20 01:20:36;;;;;;;4.80;4.40;;;6.40;99.90;;;;;;5077810;28;20096;-73
2022/11/20 01:23:03;;;;;;;6.53;4.45;;;6.30;99.90;;;;;;5067359;28;20025;-74
2022/11/20 01:25:29;;;;;;;4.82;3.60;;;6.20;99.90;;;;;;5076517;28;20040;-75
2022/11/20 01:27:55;;;;;;;7.60;4.25;;;6.20;99.90;;;;;;5067134;28;20021;-74
2022/11/20 01:30:20;;;;;;;5.80;4.20;;;6.10;99.90;;;;;;5072156;28;20029;-75
2022/11/20 01:32:46;;;;;;;5.07;4.57;;;6.10;99.90;;;;;;5062746;28;20033;-74
2022/11/20 01:35:12;;;;;;;6.45;4.90;;;6.10;99.90;;;;;;5068609;28;20097;-74
2022/11/20 01:37:38;;;;;;;4.85;4.45;;;6.00;99.90;;;;;;5067455;28;20024;-74
2022/11/20 01:40:04;;;;;;;8.40;4.32;;;5.90;99.90;;;;;;5074868;28;20396;-74
2022/11/20 01:45:47;;;;;;;24.80;13.88;;;5.90;99.90;;;;;;5062717;28;20032;-74
2022/11/20 01:48:13;;;;;;;6.18;5.47;;;5.80;99.90;;;;;;5069772;28;20408;-74
2022/11/20 01:50:40;;;;;;;47.78;30.50;;;5.70;99.90;;;;;;5071427;28;20077;-74
2022/11/20 01:53:10;;;;;;;7.55;5.22;;;5.70;99.90;;;;;;5067153;28;20560;-74
2022/11/20 01:55:44;;;;;;;11.73;7.57;;;5.60;99.90;;;;;;5072492;28;20020;-74
2022/11/20 01:58:11;;;;;;;12.88;8.85;;;5.60;99.90;;;;;;5067502;28;20025;-74
2022/11/20 02:00:37;;;;;;;6.72;6.05;;;5.50;99.90;;;;;;5062356;28;20397;-74
2022/11/20 02:03:08;;;;;;;8.07;5.70;;;5.50;99.90;;;;;;5068341;28;20038;-74
2022/11/20 02:05:39;;;;;;;6.97;5.15;;;5.50;99.90;;;;;;5072977;28;20107;-74
2022/11/20 02:08:06;;;;;;;5.90;5.25;;;5.50;99.90;;;;;;5064444;28;20037;-74
2022/11/20 02:10:33;;;;;;;8.65;5.53;;;5.50;99.90;;;;;;5075030;28;20381;-74
2022/11/20 02:15:44;;;;;;;9.00;5.80;;;5.50;99.90;;;;;;5061714;28;20096;-74
2022/11/20 02:18:13;;;;;;;7.97;5.55;;;5.50;99.90;;;;;;5061771;28;20569;-74
2022/11/20 02:20:42;;;;;;;5.38;4.95;;;5.40;99.90;;;;;;5057128;28;20048;-74
2022/11/20 02:23:13;;;;;;;8.07;5.22;;;5.40;99.90;;;;;;5059691;28;20029;-74
2022/11/20 02:25:41;;;;;;;6.50;5.05;;;5.40;99.90;;;;;;5075542;28;20443;-74
2022/11/20 02:28:06;;;;;;;6.10;5.40;;;5.30;99.90;;;;;;5065187;28;20037;-74
2022/11/20 02:30:32;;;;;;;6.95;5.45;;;5.30;99.90;;;;;;5070275;28;20032;-74
2022/11/20 02:32:58;;;;;;;6.80;5.75;;;5.30;99.90;;;;;;5072798;28;20036;-74
2022/11/20 02:35:24;;;;;;;6.03;4.90;;;5.30;99.90;;;;;;5067514;28;20043;-74
2022/11/20 02:38:02;;;;;;;5.28;4.75;;;5.20;99.90;;;;;;5068021;28;20024;-74
2022/11/20 02:40:28;;;;;;;5.32;4.82;;;5.20;99.90;;;;;;5066356;28;20025;-74
2022/11/20 02:42:55;;;;;;;5.95;5.32;;;5.20;99.90;;;;;;5062927;28;20052;-74
2022/11/20 02:45:22;;;;;;;12.05;9.73;;;5.20;99.90;;;;;;5065299;28;20021;-74
2022/11/20 02:47:48;;;;;;;5.43;4.90;;;5.20;99.90;;;;;;5062069;28;20037;-74
2022/11/20 02:50:14;;;;;;;5.32;4.82;;;5.20;99.90;;;;;;5066596;28;20025;-74
2022/11/20 02:52:40;;;;;;;6.90;5.13;;;5.20;99.90;;;;;;5061703;28;20071;-74
2022/11/20 02:55:06;;;;;;;5.38;4.88;;;5.20;99.90;;;;;;5071738;28;20036;-74
2022/11/20 02:57:32;;;;;;;5.78;4.82;;;5.20;99.90;;;;;;5066477;28;20040;-74
2022/11/20 02:59:58;;;;;;;5.28;4.85;;;5.10;99.90;;;;;;5073151;28;20029;-74
2022/11/20 03:02:24;;;;;;;7.65;5.25;;;5.10;99.90;;;;;;5064815;28;20033;-74
2022/11/20 03:04:49;;;;;;;5.55;4.85;;;5.10;99.90;;;;;;5073941;28;20100;-74
2022/11/20 03:07:15;;;;;;;6.13;5.32;;;5.10;99.90;;;;;;5062497;28;20028;-74
2022/11/20 03:09:41;;;;;;;5.38;4.75;;;5.10;99.90;;;;;;5069032;28;20519;-74
2022/11/20 03:12:07;;;;;;;5.63;5.13;;;5.10;99.90;;;;;;5069341;28;20572;-74
2022/11/20 03:14:34;;;;;;;5.05;4.55;;;5.10;99.90;;;;;;5075082;28;20020;-74
2022/11/20 03:17:00;;;;;;;5.43;4.93;;;5.10;99.90;;;;;;5069724;28;20955;-74
2022/11/20 03:19:25;;;;;;;8.07;4.80;;;5.10;99.90;;;;;;5075133;28;20032;-74
2022/11/20 03:21:51;;;;;;;6.20;4.85;;;5.00;99.90;;;;;;5062234;28;20040;-74
2022/11/20 03:24:17;;;;;;;5.13;4.63;;;4.90;99.90;;;;;;5066678;28;20037;-74
2022/11/20 03:26:43;;;;;;;5.18;4.68;;;4.90;99.90;;;;;;5073669;28;20024;-74
2022/11/20 03:29:09;;;;;;;5.25;4.75;;;4.90;99.90;;;;;;5066495;28;20021;-74
2022/11/20 03:31:37;;;;;;;5.30;4.82;;;4.90;99.90;;;;;;5071078;28;20033;-74
2022/11/20 03:34:04;;;;;;;7.07;5.45;;;4.90;99.90;;;;;;5078234;28;20053;-74
2022/11/20 03:36:30;;;;;;;23.65;15.63;;;4.80;99.90;;;;;;5075675;28;20485;-74
2022/11/20 03:38:57;;;;;;;74.35;45.95;;;4.70;99.90;;;;;;5074233;28;20492;-74
2022/11/20 03:41:26;;;;;;;43.67;27.20;;;4.70;99.90;;;;;;5067393;28;20031;-74
2022/11/20 03:43:57;;;;;;;22.80;16.85;;;4.50;99.90;;;;;;5074206;28;20029;-74
2022/11/20 03:46:23;;;;;;;18.98;14.18;;;4.40;99.90;;;;;;5066317;28;20024;-74
2022/11/20 03:48:49;;;;;;;9.77;8.57;;;4.30;99.90;;;;;;5073712;28;20025;-74
2022/11/20 03:51:17;;;;;;;13.10;11.10;;;4.20;99.90;;;;;;5077727;28;20090;-74
2022/11/20 03:53:46;;;;;;;32.22;22.50;;;4.10;99.90;;;;;;5073937;28;20028;-74
2022/11/20 03:56:13;;;;;;;16.67;11.35;;;4.00;99.90;;;;;;5075880;28;20028;-74
2022/11/20 03:58:40;;;;;;;17.00;12.40;;;3.90;99.90;;;;;;5075793;28;20016;-73
2022/11/20 04:01:07;;;;;;;8.02;5.20;;;3.90;99.90;;;;;;5076585;28;20029;-74
2022/11/20 04:03:34;;;;;;;21.83;11.18;;;3.80;99.90;;;;;;5071163;28;20021;-74
2022/11/20 04:06:15;;;;;;;23.58;17.50;;;3.80;99.90;;;;;;5069144;28;20051;-74
2022/11/20 04:08:41;;;;;;;;;;;3.70;99.90;;;;;;5075082;28;20021;-74
2022/11/20 04:11:18;;;;;;;41.20;26.40;;;3.80;99.90;;;;;;5082448;28;19904;-74
2022/11/20 04:13:56;;;;;;;35.05;23.33;;;3.70;99.90;;;;;;5071224;28;20119;-74
2022/11/20 04:16:23;;;;;;;6.25;5.68;;;3.60;99.90;;;;;;5065939;28;20024;-74
2022/11/20 04:19:00;;;;;;;7.93;6.07;;;3.70;99.90;;;;;;5069275;28;20422;-74
2022/11/20 04:21:27;;;;;;;6.30;5.70;;;3.60;99.90;;;;;;5074308;28;20020;-74
2022/11/20 04:23:54;;;;;;;17.63;12.35;;;3.70;99.90;;;;;;5065186;28;20071;-74
2022/11/20 04:26:21;;;;;;;9.75;7.00;;;3.60;99.90;;;;;;5080899;28;20016;-74
2022/11/20 04:28:47;;;;;;;20.65;12.52;;;3.70;99.90;;;;;;5074035;28;20036;-73
2022/11/20 04:31:19;;;;;;;22.80;13.27;;;3.60;99.90;;;;;;5073447;28;20024;-74
2022/11/20 04:33:45;;;;;;;19.30;14.68;;;3.50;99.90;;;;;;5073329;28;20020;-74
2022/11/20 04:36:19;;;;;;;7.50;6.10;;;3.50;99.90;;;;;;5072787;28;20590;-74
2022/11/20 04:38:46;;;;;;;6.85;6.25;;;3.50;99.90;;;;;;5074480;28;20056;-73
2022/11/20 04:41:17;;;;;;;6.15;5.55;;;3.50;99.90;;;;;;5068309;28;20104;-72
2022/11/20 04:43:48;;;;;;;14.10;10.73;;;3.50;99.90;;;;;;5069556;28;20074;-72
2022/11/20 04:46:14;;;;;;;19.55;10.75;;;3.50;99.90;;;;;;5065655;28;20515;-72
2022/11/20 04:48:40;;;;;;;7.13;6.25;;;3.50;99.90;;;;;;5074486;28;20025;-72
2022/11/20 04:51:06;;;;;;;9.60;7.65;;;3.40;99.90;;;;;;5072212;28;20121;-73
2022/11/20 04:53:31;;;;;;;10.60;7.55;;;3.40;99.90;;;;;;5063582;28;20401;-72
2022/11/20 04:56:05;;;;;;;8.70;7.82;;;3.50;99.90;;;;;;5072967;28;20497;-72
2022/11/20 04:58:31;;;;;;;9.88;6.35;;;3.50;99.90;;;;;;5071569;28;20036;-73
2022/11/20 05:01:11;;;;;;;7.13;6.07;;;3.40;99.90;;;;;;5082916;28;20017;-72
2022/11/20 05:03:37;;;;;;;17.00;11.25;;;3.40;99.90;;;;;;5067642;28;20021;-72
2022/11/20 05:06:04;;;;;;;9.10;6.90;;;3.50;99.90;;;;;;5065530;28;20389;-72
2022/11/20 05:08:31;;;;;;;15.27;10.52;;;3.40;99.90;;;;;;5069752;28;20645;-72
2022/11/20 05:11:12;;;;;;;9.30;6.22;;;3.40;99.90;;;;;;5078624;28;20017;-72
2022/11/20 05:13:38;;;;;;;10.73;6.47;;;3.30;99.90;;;;;;5070384;28;20062;-72
2022/11/20 05:16:12;;;;;;;19.55;13.35;;;3.30;99.90;;;;;;5075506;28;20101;-73
2022/11/20 05:18:38;;;;;;;18.02;13.27;;;3.30;99.90;;;;;;5064408;28;20025;-72
2022/11/20 05:21:04;;;;;;;8.90;7.05;;;3.30;99.90;;;;;;5069613;28;20045;-72
2022/11/20 05:23:31;;;;;;;24.00;14.32;;;3.30;99.90;;;;;;5060790;28;20501;-72
2022/11/20 05:25:58;;;;;;;16.70;11.98;;;3.30;99.90;;;;;;5075428;28;20031;-72
2022/11/20 05:28:25;;;;;;;12.05;9.32;;;3.30;99.90;;;;;;5067256;28;20107;-72
2022/11/20 05:30:51;;;;;;;14.82;10.70;;;3.30;99.90;;;;;;5070611;28;20557;-73
2022/11/20 05:33:17;;;;;;;13.48;9.05;;;3.20;99.90;;;;;;5067623;28;20032;-73
2022/11/20 05:35:43;;;;;;;8.38;6.60;;;3.20;99.90;;;;;;5068234;28;20024;-72
2022/11/20 05:38:10;;;;;;;70.80;39.72;;;3.20;99.90;;;;;;5066969;28;20477;-73
2022/11/20 05:40:36;;;;;;;25.50;16.27;;;3.20;99.90;;;;;;5066341;28;20050;-72
2022/11/20 05:43:02;;;;;;;19.60;14.02;;;3.20;99.90;;;;;;5068115;28;20028;-73
2022/11/20 05:45:28;;;;;;;7.60;6.70;;;3.20;99.90;;;;;;5071891;28;20054;-72
2022/11/20 05:47:58;;;;;;;16.63;10.02;;;3.10;99.90;;;;;;5066055;28;20508;-73
2022/11/20 05:50:24;;;;;;;21.35;9.80;;;3.00;99.90;;;;;;5072781;28;20491;-73
2022/11/20 05:52:50;;;;;;;8.27;6.47;;;3.00;99.90;;;;;;5066280;28;20028;-73
2022/11/20 05:55:16;;;;;;;12.57;8.00;;;3.00;99.90;;;;;;5064261;28;20017;-72
2022/11/20 05:57:41;;;;;;;10.57;7.20;;;3.00;99.90;;;;;;5065204;28;20029;-73
2022/11/20 06:00:08;;;;;;;7.07;6.45;;;3.00;99.90;;;;;;5075182;28;20031;-72
2022/11/20 06:02:35;;;;;;;22.75;15.40;;;2.90;99.90;;;;;;5064722;28;20028;-73
2022/11/20 06:05:01;;;;;;;72.75;46.22;;;3.00;99.90;;;;;;5075099;28;20040;-73
2022/11/20 06:07:27;;;;;;;68.45;43.47;;;2.90;99.90;;;;;;5063225;28;20029;-72
2022/11/20 06:09:53;;;;;;;40.70;25.77;;;2.90;99.90;;;;;;5076473;28;20052;-73
2022/11/20 06:12:19;;;;;;;41.47;27.83;;;2.90;99.90;;;;;;5074230;28;20021;-72
2022/11/20 06:14:45;;;;;;;25.50;15.43;;;2.90;99.90;;;;;;5070053;28;20497;-72
2022/11/20 06:17:10;;;;;;;18.20;13.52;;;2.80;99.90;;;;;;5068297;28;20079;-72
2022/11/20 06:19:36;;;;;;;14.73;12.73;;;2.80;99.90;;;;;;5075588;28;20046;-72
2022/11/20 06:22:02;;;;;;;12.48;9.23;;;2.80;99.90;;;;;;5073686;28;20052;-72
2022/11/20 06:24:28;;;;;;;7.55;6.85;;;2.80;99.90;;;;;;5063544;28;20056;-73
2022/11/20 06:26:53;;;;;;;12.73;7.53;;;2.80;99.90;;;;;;5074376;28;20085;-72
2022/11/20 06:29:19;;;;;;;23.20;14.23;;;2.80;99.90;;;;;;5070476;28;20488;-72
2022/11/20 06:31:45;;;;;;;11.88;9.60;;;2.90;99.90;;;;;;5066837;28;20044;-72
2022/11/20 06:34:11;;;;;;;56.65;33.92;;;2.90;99.90;;;;;;5068848;28;20137;-73
2022/11/20 06:36:36;;;;;;;21.95;16.92;;;2.80;99.90;;;;;;5070835;28;20021;-72
2022/11/20 06:39:02;;;;;;;47.55;31.40;;;2.80;99.90;;;;;;5067209;28;20024;-72
2022/11/20 06:41:28;;;;;;;53.88;31.35;;;2.70;99.90;;;;;;5059752;28;20050;-72
2022/11/20 06:43:54;;;;;;;98.45;57.92;;;2.80;99.90;;;;;;5068943;28;20028;-72
2022/11/20 06:46:20;;;;;;;37.42;24.70;;;2.80;99.90;;;;;;5073477;28;20099;-72
2022/11/20 06:48:48;;;;;;;15.63;9.48;;;2.70;99.90;;;;;;5071149;28;20039;-72
2022/11/20 06:51:14;;;;;;;38.38;25.50;;;2.70;99.90;;;;;;5072066;28;20021;-73
2022/11/20 06:53:40;;;;;;;41.60;26.60;;;2.60;99.90;;;;;;5063761;28;20078;-72
2022/11/20 06:56:06;;;;;;;14.82;8.32;;;2.70;99.90;;;;;;5067781;28;20021;-72
2022/11/20 06:58:34;;;;;;;17.45;11.98;;;2.70;99.90;;;;;;5064461;28;20028;-72
2022/11/20 07:01:05;;;;;;;24.00;17.55;;;2.70;99.90;;;;;;5065667;28;20397;-72
2022/11/20 07:03:31;;;;;;;98.53;58.00;;;2.70;99.90;;;;;;5068633;28;20488;-73
2022/11/20 07:05:58;;;;;;;35.40;22.33;;;2.60;99.90;;;;;;5069609;28;20397;-72
2022/11/20 07:08:24;;;;;;;74.15;45.53;;;2.50;99.90;;;;;;5066751;28;20115;-73
2022/11/20 07:10:50;;;;;;;107.03;64.05;;;2.40;99.90;;;;;;5081816;28;20021;-72
2022/11/20 07:13:17;;;;;;;9.63;8.63;;;2.50;99.90;;;;;;5067100;28;20032;-72
2022/11/20 07:15:43;;;;;;;71.60;45.08;;;2.50;99.90;;;;;;5071043;28;20017;-72
2022/11/20 07:18:08;;;;;;;52.15;32.65;;;2.50;99.90;;;;;;5061261;28;20378;-72
2022/11/20 07:20:34;;;;;;;49.55;28.77;;;2.50;99.90;;;;;;5073159;28;20090;-72
2022/11/20 07:23:00;;;;;;;136.13;80.40;;;2.50;99.90;;;;;;5066425;28;20028;-72
2022/11/20 07:25:27;;;;;;;136.13;79.38;;;2.50;99.90;;;;;;5074489;28;20079;-72
2022/11/20 07:28:00;;;;;;;84.60;50.90;;;2.60;99.90;;;;;;5061058;28;20111;-72
2022/11/20 07:30:30;;;;;;;38.20;24.48;;;2.70;99.90;;;;;;5081906;28;20064;-74
2022/11/20 07:32:56;;;;;;;45.15;29.00;;;2.70;99.90;;;;;;5065748;28;20029;-74
2022/11/20 07:35:24;;;;;;;30.17;20.60;;;2.70;99.90;;;;;;5066055;28;20074;-74
2022/11/20 07:37:49;;;;;;;18.40;14.35;;;2.80;99.90;;;;;;5061381;28;20025;-74
2022/11/20 07:40:19;;;;;;;19.77;13.18;;;2.80;99.90;;;;;;5067870;28;20025;-74
2022/11/20 07:42:53;;;;;;;18.43;14.97;;;2.80;99.90;;;;;;5062386;28;20055;-74
2022/11/20 07:45:20;;;;;;;22.02;14.85;;;2.90;99.90;;;;;;5073554;28;20374;-74
2022/11/20 07:47:46;;;;;;;18.20;14.68;;;3.00;99.90;;;;;;5063099;28;20099;-74
2022/11/20 07:50:12;;;;;;;319.23;256.60;;;3.10;99.90;;;;;;5069493;28;20033;-74
2022/11/20 07:52:38;;;;;;;228.93;194.48;;;3.10;99.90;;;;;;5070030;28;20028;-74
2022/11/20 07:55:05;;;;;;;22.27;17.90;;;3.20;99.90;;;;;;5072817;28;20496;-74
2022/11/20 07:57:30;;;;;;;19.45;16.75;;;3.30;99.90;;;;;;5066944;28;20027;-73
2022/11/20 07:59:56;;;;;;;20.15;15.18;;;3.30;99.90;;;;;;5073970;28;20484;-73
2022/11/20 08:02:22;;;;;;;20.13;14.27;;;3.40;99.90;;;;;;5066200;28;20079;-73
2022/11/20 08:04:48;;;;;;;20.95;13.98;;;3.50;99.90;;;;;;5075156;28;20028;-74
2022/11/20 08:07:14;;;;;;;13.88;12.25;;;3.70;99.90;;;;;;5070703;28;20409;-73
2022/11/20 08:09:39;;;;;;;14.95;11.10;;;3.90;99.90;;;;;;5057143;28;20021;-74
2022/11/20 08:14:50;;;;;;;13.27;10.73;;;4.20;99.90;;;;;;5068432;28;20027;-74
2022/11/20 08:17:15;;;;;;;14.20;12.20;;;4.30;99.90;;;;;;5058543;28;20112;-74
2022/11/20 08:19:41;;;;;;;12.85;10.73;;;4.50;99.90;;;;;;5072041;28;20025;-73
2022/11/20 08:22:07;;;;;;;12.73;9.90;;;4.60;99.90;;;;;;5065495;28;20055;-74
2022/11/20 08:24:33;;;;;;;13.25;9.88;;;4.70;99.90;;;;;;5071207;28;20120;-74
2022/11/20 08:26:59;;;;;;;9.68;8.57;;;4.80;99.90;;;;;;5075463;28;20082;-75
2022/11/20 08:29:26;;;;;;;10.52;9.10;;;4.80;99.90;;;;;;5069575;28;20032;-75
2022/11/20 08:31:52;;;;;;;15.93;12.45;;;4.90;99.90;;;;;;5075693;28;20021;-74
2022/11/20 08:34:18;;;;;;;10.55;8.27;;;5.00;99.90;;;;;;5074452;28;20120;-74
2022/11/20 08:36:44;;;;;;;10.52;7.82;;;5.10;99.90;;;;;;5075297;28;20016;-74
2022/11/20 08:39:13;;;;;;;12.68;7.95;;;5.10;99.90;;;;;;5071915;28;20042;-75
2022/11/20 08:41:39;;;;;;;10.50;7.72;;;5.10;99.90;;;;;;5074267;28;20028;-74
2022/11/20 08:44:07;;;;;;;10.55;8.63;;;5.10;99.90;;;;;;5071707;28;20047;-75
2022/11/20 08:46:39;;;;;;;12.07;9.65;;;5.10;99.90;;;;;;5065192;28;20024;-75
2022/11/20 08:49:09;;;;;;;10.50;9.38;;;5.10;99.90;;;;;;5066255;28;20041;-75
2022/11/20 08:51:35;;;;;;;16.60;10.70;;;5.10;99.90;;;;;;5062745;28;20178;-75
2022/11/20 08:54:01;;;;;;;23.73;15.07;;;5.20;99.90;;;;;;5076509;28;20130;-75
2022/11/20 08:56:27;;;;;;;12.65;10.52;;;5.20;99.90;;;;;;5063825;28;20497;-75
2022/11/20 08:58:53;;;;;;;13.57;10.13;;;5.30;99.90;;;;;;5070754;28;20029;-75
2022/11/20 09:01:20;;;;;;;10.05;8.82;;;5.40;99.90;;;;;;5065102;28;20024;-75
2022/11/20 09:03:46;;;;;;;9.98;8.98;;;5.50;99.90;;;;;;5079751;28;20434;-75
2022/11/20 09:06:13;;;;;;;10.57;9.45;;;5.60;99.90;;;;;;5074299;28;20100;-75
2022/11/20 09:08:39;;;;;;;9.70;8.80;;;5.60;99.90;;;;;;5072392;28;20035;-75
2022/11/20 09:11:06;;;;;;;13.25;8.65;;;5.50;99.90;;;;;;5076141;28;20163;-75
2022/11/20 09:13:34;;;;;;;12.13;8.27;;;5.50;99.90;;;;;;5066711;28;20021;-75
2022/11/20 09:16:03;;;;;;;10.85;9.02;;;5.60;99.90;;;;;;5067547;28;20477;-76
2022/11/20 09:18:31;;;;;;;11.65;8.48;;;5.70;99.90;;;;;;5069269;28;20020;-76
2022/11/20 09:21:01;;;;;;;9.93;8.60;;;5.70;99.90;;;;;;5068555;28;20032;-75
2022/11/20 09:23:30;;;;;;;10.88;8.38;;;5.80;99.90;;;;;;5066129;28;20028;-76
2022/11/20 09:25:59;;;;;;;9.50;7.78;;;6.00;99.90;;;;;;5076702;28;20016;-75
2022/11/20 09:28:26;;;;;;;9.13;8.23;;;6.00;99.90;;;;;;5063119;28;20078;-75
2022/11/20 09:30:52;;;;;;;9.38;8.35;;;6.00;99.90;;;;;;5073726;28;20484;-75
2022/11/20 09:33:18;;;;;;;10.70;8.90;;;6.10;99.90;;;;;;5067223;28;20060;-75
2022/11/20 09:35:44;;;;;;;10.70;8.82;;;6.20;99.90;;;;;;5076123;28;20028;-75
2022/11/20 09:38:10;;;;;;;10.05;8.38;;;6.30;99.90;;;;;;5073517;28;20601;-75
2022/11/20 09:40:45;;;;;;;9.60;8.48;;;6.30;99.90;;;;;;5073486;28;20413;-75
2022/11/20 09:43:42;;;;;;;60.70;37.92;;;6.40;99.90;;;;;;5062427;28;20060;-75
2022/11/20 09:46:35;;;;;;;12.18;10.15;;;6.40;99.90;;;;;;5069837;28;20028;-75
2022/11/20 09:49:13;;;;;;;13.27;8.80;;;6.40;99.90;;;;;;5065392;28;20032;-75
2022/11/20 09:51:42;;;;;;;11.23;9.60;;;6.40;99.90;;;;;;5074899;28;20739;-75
2022/11/20 09:54:19;;;;;;;9.85;8.85;;;6.50;99.90;;;;;;5073161;28;20025;-76
2022/11/20 09:56:55;;;;;;;10.32;9.23;;;6.50;99.90;;;;;;5064260;28;20039;-75
2022/11/20 09:59:32;;;;;;;9.45;8.07;;;6.60;99.90;;;;;;5073485;28;20027;-75
2022/11/20 10:02:00;;;;;;;9.00;7.95;;;6.60;99.90;;;;;;5071450;28;20024;-75
2022/11/20 10:04:28;;;;;;;8.93;7.85;;;6.60;99.90;;;;;;5076098;28;20020;-75
2022/11/20 10:07:02;;;;;;;13.95;10.13;;;6.70;99.90;;;;;;5073012;28;20036;-75
2022/11/20 10:09:32;;;;;;;67.63;54.97;;;6.80;99.90;;;;;;5076606;28;20031;-74
2022/11/20 10:11:58;;;;;;;;;;;6.80;99.90;;;;;;5072337;28;20088;-74
2022/11/20 10:14:32;;;;;;;20.50;15.93;;;6.90;99.90;;;;;;5073475;28;20360;-75
2022/11/20 10:17:14;;;;;;;9.65;8.65;;;6.90;99.90;;;;;;5070888;28;20016;-75
2022/11/20 10:20:07;;;;;;;8.75;7.13;;;6.90;99.90;;;;;;5070455;28;20031;-75
2022/11/20 10:22:38;;;;;;;19.70;14.25;;;7.00;99.90;;;;;;5062520;28;20436;-75
2022/11/20 10:25:20;;;;;;;12.02;7.90;;;7.10;99.90;;;;;;5073702;28;20076;-74
2022/11/20 10:28:18;;;;;;;11.38;8.55;;;7.10;99.90;;;;;;5069963;28;20051;-75
2022/11/20 10:30:48;;;;;;;50.05;32.60;;;7.20;99.90;;;;;;5073273;28;20023;-75
2022/11/20 10:33:23;;;;;;;9.57;8.27;;;7.30;99.90;;;;;;5065830;28;20035;-75
2022/11/20 10:36:16;;;;;;;10.80;8.07;;;7.30;99.90;;;;;;5065072;28;20059;-75
2022/11/20 10:39:21;;;;;;;10.30;7.95;;;7.40;99.90;;;;;;5059916;28;20041;-75
2022/11/20 10:41:50;;;;;;;9.55;7.38;;;7.40;99.90;;;;;;5072072;28;20043;-75
2022/11/20 10:47:10;;;;;;;8.05;7.15;;;7.50;99.90;;;;;;5069478;28;20048;-75
2022/11/20 10:49:36;;;;;;;9.05;7.15;;;7.60;99.90;;;;;;5071810;28;20036;-74
2022/11/20 10:52:44;;;;;;;10.80;8.52;;;7.60;99.90;;;;;;5071818;28;20486;-75
2022/11/20 10:55:22;;;;;;;15.10;9.95;;;7.70;99.90;;;;;;5064522;28;20485;-75
2022/11/20 10:58:29;;;;;;;43.85;25.20;;;7.80;99.90;;;;;;5064595;28;20385;-74
2022/11/20 11:01:21;;;;;;;54.30;31.13;;;7.90;99.90;;;;;;5066070;28;20028;-75
2022/11/20 11:03:48;;;;;;;13.38;7.45;;;7.90;99.90;;;;;;5069148;28;20029;-76
2022/11/20 11:06:37;;;;;;;12.57;9.88;;;8.00;99.90;;;;;;5077354;28;20476;-75
2022/11/20 11:09:12;;;;;;;9.95;7.53;;;8.20;99.90;;;;;;5069151;28;20043;-75
2022/11/20 11:11:38;;;;;;;31.30;21.05;;;8.20;99.90;;;;;;5075417;28;20096;-75
2022/11/20 11:14:08;;;;;;;12.55;7.45;;;8.30;99.90;;;;;;5068971;28;20055;-75
2022/11/20 11:16:34;;;;;;;8.40;7.07;;;8.30;99.90;;;;;;5064495;28;20049;-75
2022/11/20 11:19:12;;;;;;;8.05;6.30;;;8.40;99.90;;;;;;5067400;28;20771;-75
2022/11/20 11:21:43;;;;;;;7.32;6.43;;;8.50;99.90;;;;;;5073296;28;20047;-76
2022/11/20 11:24:23;;;;;;;7.93;6.80;;;8.60;99.90;;;;;;5067622;28;20055;-76
2022/11/20 11:27:04;;;;;;;6.83;5.90;;;8.70;99.90;;;;;;5071645;28;20111;-76
2022/11/20 11:29:30;;;;;;;68.95;24.23;;;8.80;99.90;;;;;;5063982;28;20286;-75
2022/11/20 11:32:18;;;;;;;11.05;7.78;;;9.00;99.90;;;;;;5072630;28;20028;-76
2022/11/20 11:34:44;;;;;;;8.27;6.68;;;9.20;99.90;;;;;;5068566;28;20021;-76
2022/11/20 11:37:17;;;;;;;7.20;6.20;;;9.30;99.90;;;;;;5071189;28;20074;-76
2022/11/20 11:39:44;;;;;;;6.38;5.75;;;9.50;99.90;;;;;;5067925;28;20473;-76
2022/11/20 11:42:18;;;;;;;48.38;17.17;;;9.60;99.90;;;;;;5062226;28;20036;-75
2022/11/20 11:47:43;;;;;;;44.15;18.33;;;9.80;99.90;;;;;;5065484;28;20039;-76
2022/11/20 11:50:09;;;;;;;5.68;5.05;;;10.00;99.90;;;;;;5068613;28;20514;-75
2022/11/20 11:53:04;;;;;;;5.85;5.22;;;10.10;99.90;;;;;;5073740;28;20032;-76
2022/11/20 11:55:56;;;;;;;604.88;274.48;;;10.20;99.90;;;;;;5074585;28;20357;-76
2022/11/20 11:58:43;;;;;;;14.90;8.35;;;10.40;99.90;;;;;;5073264;28;20037;-76
2022/11/20 12:01:33;;;;;;;13.82;8.38;;;10.60;99.90;;;;;;5063419;28;20020;-77
2022/11/20 12:04:44;;;;;;;99.05;41.63;;;10.80;99.90;;;;;;5075994;28;20061;-76
2022/11/20 12:07:22;;;;;;;6.97;4.85;;;10.80;99.90;;;;;;5067972;28;20039;-76
2022/11/20 12:09:53;;;;;;;385.15;170.50;;;10.90;99.90;;;;;;5079516;28;20028;-75
2022/11/20 12:12:27;;;;;;;11.20;8.35;;;11.10;99.90;;;;;;5070134;28;20055;-76
2022/11/20 12:14:56;;;;;;;220.77;109.57;;;11.10;99.90;;;;;;5077146;28;20032;-76
2022/11/20 12:17:21;;;;;;;12.18;7.65;;;11.30;99.90;;;;;;5069324;28;20066;-76
2022/11/20 12:19:47;;;;;;;211.18;104.30;;;11.30;99.90;;;;;;5074014;28;20080;-76
2022/11/20 12:22:24;;;;;;;290.10;155.95;;;11.40;99.90;;;;;;5074085;28;20028;-76
2022/11/20 12:25:08;;;;;;;255.32;126.88;;;11.60;99.90;;;;;;5076150;28;20111;-76
2022/11/20 12:28:05;;;;;;;36.22;19.95;;;11.90;99.90;;;;;;5067883;28;20029;-76
2022/11/20 12:30:38;;;;;;;9.23;5.63;;;12.10;99.90;;;;;;5075680;28;20025;-76
2022/11/20 12:33:15;;;;;;;7.22;4.80;;;12.00;99.90;;;;;;5070469;28;20093;-76
2022/11/20 12:36:08;;;;;;;35.80;20.02;;;12.10;99.90;;;;;;5064056;28;20021;-76
2022/11/20 12:38:49;;;;;;;7.32;4.63;;;12.30;99.90;;;;;;5069748;28;20043;-76
2022/11/20 12:47:56;;;;;;;3.78;2.55;;;12.80;99.90;;;;;;5069166;28;20040;-76
2022/11/20 12:50:31;;;;;;;5.55;4.32;;;12.70;99.90;;;;;;5061669;28;20027;-76
2022/11/20 12:53:05;;;;;;;6.93;4.18;;;12.80;99.90;;;;;;5070387;28;20035;-73
2022/11/20 12:55:49;;;;;;;6.22;4.03;;;12.80;99.90;;;;;;5077995;28;20026;-76
2022/11/20 12:58:27;;;;;;;3.95;2.90;;;12.80;99.90;;;;;;5068697;28;20032;-76
2022/11/20 13:01:49;;;;;;;4.03;3.00;;;12.70;99.90;;;;;;5059690;28;20025;-75
2022/11/20 13:04:36;;;;;;;4.80;3.80;;;12.40;99.90;;;;;;5066807;28;20037;-76
2022/11/20 13:07:12;;;;;;;3.25;2.40;;;12.00;99.90;;;;;;5066968;28;20032;-74
2022/11/20 13:09:45;;;;;;;3.33;2.47;;;11.60;99.90;;;;;;5068574;28;20033;-74
2022/11/20 13:12:16;;;;;;;4.97;2.50;;;11.20;99.90;;;;;;5076604;28;20122;-74
2022/11/20 13:14:57;;;;;;;9.88;3.92;;;10.90;99.90;;;;;;5070309;28;20012;-75
2022/11/20 13:17:44;;;;;;;6.35;3.95;;;10.50;99.90;;;;;;5072628;28;20028;-74
2022/11/20 13:20:17;;;;;;;9.13;6.05;;;10.30;99.90;;;;;;5086193;28;20024;-73
2022/11/20 13:22:51;;;;;;;3.55;3.20;;;10.20;99.90;;;;;;5071290;28;20050;-74
2022/11/20 13:25:29;;;;;;;4.03;3.08;;;10.00;99.90;;;;;;5070343;28;20586;-73
2022/11/20 13:27:57;;;;;;;5.50;3.30;;;10.00;99.90;;;;;;5064022;28;20064;-74